createdAt,value
2018-04-22T00:00:43.688Z,99.99
2018-04-22T00:01:43.747Z,99.99
2018-04-22T00:02:43.722Z,99.99
2018-04-22T00:03:43.636Z,99.99
2018-04-22T00:04:43.688Z,99.99
2018-04-22T00:05:43.690Z,99.99
2018-04-22T00:06:43.691Z,99.99
2018-04-22T00:07:43.751Z,99.99
2018-04-22T00:08:43.734Z,99.99
2018-04-22T00:09:43.662Z,99.99
2018-04-22T00:10:43.758Z,99.99
2018-04-22T00:11:43.764Z,99.99
2018-04-22T00:12:43.723Z,99.99
2018-04-22T00:13:43.768Z,99.99
2018-04-22T00:14:43.755Z,99.99
2018-04-22T00:15:43.727Z,99.99
2018-04-22T00:16:43.765Z,99.99
2018-04-22T00:17:43.761Z,99.99
2018-04-22T00:18:43.675Z,99.99
2018-04-22T00:19:43.680Z,99.99
2018-04-22T00:20:43.713Z,99.99
2018-04-22T00:21:43.711Z,99.99
2018-04-22T00:22:43.718Z,99.99
2018-04-22T00:23:43.713Z,99.99
2018-04-22T00:24:43.784Z,99.99
2018-04-22T00:25:43.708Z,99.99
2018-04-22T00:26:43.712Z,99.99
2018-04-22T00:27:43.710Z,99.99
2018-04-22T00:28:43.717Z,99.99
2018-04-22T00:29:43.784Z,99.99
2018-04-22T00:30:43.748Z,99.99
2018-04-22T00:31:43.802Z,99.99
2018-04-22T00:32:43.804Z,99.99
2018-04-22T00:33:43.804Z,99.99
2018-04-22T00:34:43.756Z,99.99
2018-04-22T00:35:43.783Z,99.99
2018-04-22T00:36:43.702Z,99.99
2018-04-22T00:37:43.819Z,99.99
2018-04-22T00:38:43.823Z,99.99
2018-04-22T00:39:43.818Z,99.99
2018-04-22T00:40:43.844Z,99.99
2018-04-22T00:41:43.705Z,99.99
2018-04-22T00:42:43.824Z,99.99
2018-04-22T00:43:43.694Z,99.99
2018-04-22T00:44:43.788Z,99.99
2018-04-22T00:45:43.793Z,99.99
2018-04-22T00:46:43.752Z,99.99
2018-04-22T00:47:43.689Z,99.99
2018-04-22T00:48:43.757Z,99.99
2018-04-22T00:49:43.830Z,99.99
2018-04-22T00:50:43.756Z,99.99
2018-04-22T00:51:43.713Z,99.99
2018-04-22T00:52:43.770Z,99.99
2018-04-22T00:53:43.770Z,99.99
2018-04-22T00:54:43.761Z,99.99
2018-04-22T00:55:43.755Z,99.99
2018-04-22T00:56:43.741Z,99.99
2018-04-22T00:57:43.817Z,99.99
2018-04-22T00:58:43.831Z,99.99
2018-04-22T00:59:43.765Z,99.99
2018-04-22T01:00:43.761Z,99.99
2018-04-22T01:01:43.803Z,99.99
2018-04-22T01:02:43.733Z,99.99
2018-04-22T01:03:43.805Z,99.99
2018-04-22T01:04:43.803Z,99.99
2018-04-22T01:05:43.742Z,99.99
2018-04-22T01:06:43.734Z,99.99
2018-04-22T01:07:43.812Z,99.99
2018-04-22T01:08:43.690Z,99.99
2018-04-22T01:09:43.741Z,99.99
2018-04-22T01:10:43.859Z,99.99
2018-04-22T01:11:43.711Z,99.99
2018-04-22T01:12:43.865Z,99.99
2018-04-22T01:13:43.714Z,99.99
2018-04-22T01:14:43.856Z,99.99
2018-04-22T01:15:43.866Z,99.99
2018-04-22T01:16:43.848Z,99.99
2018-04-22T01:17:43.846Z,99.99
2018-04-22T01:18:43.835Z,99.99
2018-04-22T01:19:43.731Z,99.99
2018-04-22T01:20:43.820Z,99.99
2018-04-22T01:21:43.709Z,99.99
2018-04-22T01:22:43.747Z,99.99
2018-04-22T01:23:43.840Z,99.99
2018-04-22T01:24:43.751Z,99.99
2018-04-22T01:25:43.818Z,99.99
2018-04-22T01:26:43.920Z,99.99
2018-04-22T01:27:43.754Z,99.99
2018-04-22T01:28:43.825Z,99.99
2018-04-22T01:29:43.757Z,99.99
2018-04-22T01:30:43.733Z,99.99
2018-04-22T01:31:43.819Z,99.99
2018-04-22T01:32:43.782Z,99.99
2018-04-22T01:33:43.737Z,99.99
2018-04-22T01:34:43.819Z,99.99
2018-04-22T01:35:43.734Z,99.99
2018-04-22T01:36:43.717Z,99.99
2018-04-22T01:37:43.700Z,99.99
2018-04-22T01:38:43.823Z,99.99
2018-04-22T01:39:43.735Z,99.99
2018-04-22T01:40:43.796Z,99.99
2018-04-22T01:41:43.869Z,99.99
2018-04-22T01:42:43.851Z,99.99
2018-04-22T01:43:43.831Z,99.99
2018-04-22T01:44:43.810Z,99.99
2018-04-22T01:45:43.876Z,99.99
2018-04-22T01:46:43.848Z,99.99
2018-04-22T01:47:43.758Z,99.99
2018-04-22T01:48:43.872Z,99.99
2018-04-22T01:49:43.834Z,99.99
2018-04-22T01:50:43.807Z,99.99
2018-04-22T01:51:43.762Z,99.99
2018-04-22T01:52:43.804Z,99.99
2018-04-22T01:53:43.895Z,99.99
2018-04-22T01:54:43.860Z,99.99
2018-04-22T01:55:43.839Z,99.99
2018-04-22T01:56:43.766Z,99.99
2018-04-22T01:57:43.913Z,99.99
2018-04-22T01:58:43.810Z,99.99
2018-04-22T01:59:43.809Z,99.99
2018-04-22T02:00:43.820Z,99.99
2018-04-22T02:01:43.869Z,99.99
2018-04-22T02:02:43.870Z,99.99
2018-04-22T02:03:43.787Z,99.99
2018-04-22T02:04:43.842Z,99.99
2018-04-22T02:05:43.807Z,99.99
2018-04-22T02:06:43.749Z,99.99
2018-04-22T02:07:43.808Z,99.99
2018-04-22T02:08:43.819Z,99.99
2018-04-22T02:09:43.848Z,99.99
2018-04-22T02:10:43.704Z,99.99
2018-04-22T02:11:43.867Z,99.99
2018-04-22T02:12:43.757Z,99.99
2018-04-22T02:13:43.799Z,99.99
2018-04-22T02:14:43.798Z,99.99
2018-04-22T02:15:43.708Z,99.99
2018-04-22T02:16:43.713Z,99.99
2018-04-22T02:17:43.704Z,99.99
2018-04-22T02:18:43.805Z,99.99
2018-04-22T02:19:43.802Z,99.99
2018-04-22T02:20:43.856Z,99.99
2018-04-22T02:21:43.783Z,99.99
2018-04-22T02:22:43.859Z,99.99
2018-04-22T02:23:43.787Z,99.99
2018-04-22T02:24:43.795Z,99.99
2018-04-22T02:25:43.793Z,99.99
2018-04-22T02:26:43.859Z,99.99
2018-04-22T02:27:43.803Z,99.99
2018-04-22T02:28:43.789Z,99.99
2018-04-22T02:29:43.823Z,99.99
2018-04-22T02:30:43.820Z,99.99
2018-04-22T02:31:43.766Z,99.99
2018-04-22T02:32:43.767Z,99.99
2018-04-22T02:33:43.850Z,99.99
2018-04-22T02:34:43.772Z,99.99
2018-04-22T02:35:43.773Z,99.99
2018-04-22T02:36:43.892Z,99.99
2018-04-22T02:37:43.901Z,99.99
2018-04-22T02:38:43.830Z,99.99
2018-04-22T02:39:43.866Z,99.99
2018-04-22T02:40:43.797Z,99.99
2018-04-22T02:41:43.801Z,99.99
2018-04-22T02:42:43.866Z,99.99
2018-04-22T02:43:43.829Z,99.99
2018-04-22T02:44:43.860Z,99.99
2018-04-22T02:45:43.872Z,99.99
2018-04-22T02:46:43.870Z,99.99
2018-04-22T02:47:43.806Z,99.99
2018-04-22T02:48:43.874Z,99.99
2018-04-22T02:49:43.808Z,99.99
2018-04-22T02:50:43.873Z,99.99
2018-04-22T02:51:43.911Z,99.99
2018-04-22T02:52:43.778Z,99.99
2018-04-22T02:53:43.871Z,99.99
2018-04-22T02:54:43.871Z,99.99
2018-04-22T02:55:43.891Z,99.99
2018-04-22T02:56:43.836Z,99.99
2018-04-22T02:57:43.843Z,99.99
2018-04-22T02:58:43.882Z,99.99
2018-04-22T02:59:43.879Z,99.99
2018-04-22T03:00:43.897Z,99.99
2018-04-22T03:01:43.853Z,99.99
2018-04-22T03:02:43.838Z,99.99
2018-04-22T03:03:43.805Z,99.99
2018-04-22T03:04:43.884Z,99.99
2018-04-22T03:05:43.911Z,99.99
2018-04-22T03:06:43.851Z,99.99
2018-04-22T03:07:43.779Z,99.99
2018-04-22T03:08:43.785Z,99.99
2018-04-22T03:09:43.845Z,99.99
2018-04-22T03:10:43.819Z,99.99
2018-04-22T03:11:43.821Z,99.99
2018-04-22T03:12:43.883Z,99.99
2018-04-22T03:13:43.822Z,99.99
2018-04-22T03:14:43.817Z,99.99
2018-04-22T03:15:43.815Z,99.99
2018-04-22T03:16:43.889Z,99.99
2018-04-22T03:17:43.819Z,99.99
2018-04-22T03:18:43.818Z,99.99
2018-04-22T03:19:43.892Z,99.99
2018-04-22T03:20:43.883Z,99.99
2018-04-22T03:21:43.841Z,99.99
2018-04-22T03:22:43.883Z,99.99
2018-04-22T03:23:43.850Z,99.99
2018-04-22T03:24:43.885Z,99.99
2018-04-22T03:25:43.776Z,99.99
2018-04-22T03:26:43.885Z,99.99
2018-04-22T03:27:43.886Z,99.99
2018-04-22T03:28:43.836Z,99.99
2018-04-22T03:29:43.778Z,99.99
2018-04-22T03:30:43.915Z,99.99
2018-04-22T03:31:43.894Z,99.99
2018-04-22T03:32:43.862Z,99.99
2018-04-22T03:33:43.857Z,99.99
2018-04-22T03:34:43.895Z,99.99
2018-04-22T03:35:43.870Z,99.99
2018-04-22T03:36:43.893Z,99.99
2018-04-22T03:37:43.916Z,99.99
2018-04-22T03:38:43.899Z,99.99
2018-04-22T03:39:43.896Z,99.99
2018-04-22T03:40:43.809Z,99.99
2018-04-22T03:41:43.899Z,99.99
2018-04-22T03:42:43.938Z,99.99
2018-04-22T03:43:43.868Z,99.99
2018-04-22T03:44:43.991Z,99.99
2018-04-22T03:45:43.866Z,99.99
2018-04-22T03:46:43.934Z,99.99
2018-04-22T03:47:43.937Z,99.99
2018-04-22T03:48:43.979Z,99.99
2018-04-22T03:49:43.835Z,99.99
2018-04-22T03:50:43.827Z,99.99
2018-04-22T03:51:43.931Z,99.99
2018-04-22T03:52:43.874Z,99.99
2018-04-22T03:53:43.830Z,99.99
2018-04-22T03:54:43.948Z,99.99
2018-04-22T03:55:43.950Z,99.99
2018-04-22T03:56:43.879Z,99.99
2018-04-22T03:57:43.836Z,99.99
2018-04-22T03:58:43.911Z,99.99
2018-04-22T03:59:43.820Z,99.99
2018-04-22T04:00:43.883Z,99.99
2018-04-22T04:01:43.942Z,99.99
2018-04-22T04:02:43.890Z,99.99
2018-04-22T04:03:43.859Z,99.99
2018-04-22T04:04:43.857Z,99.99
2018-04-22T04:05:43.889Z,99.99
2018-04-22T04:06:43.838Z,99.99
2018-04-22T04:07:43.922Z,99.99
2018-04-22T04:08:43.920Z,99.99
2018-04-22T04:09:43.879Z,99.99
2018-04-22T04:10:43.951Z,99.99
2018-04-22T04:11:43.922Z,99.99
2018-04-22T04:12:43.851Z,99.99
2018-04-22T04:13:43.927Z,99.99
2018-04-22T04:14:43.926Z,99.99
2018-04-22T04:15:43.926Z,99.99
2018-04-22T04:16:43.863Z,99.99
2018-04-22T04:17:43.860Z,99.99
2018-04-22T04:18:43.922Z,99.99
2018-04-22T04:19:43.859Z,99.99
2018-04-22T04:20:43.932Z,99.99
2018-04-22T04:21:43.819Z,99.99
2018-04-22T04:22:43.832Z,99.99
2018-04-22T04:23:43.890Z,99.99
2018-04-22T04:24:43.826Z,99.99
2018-04-22T04:25:43.882Z,99.99
2018-04-22T04:26:43.918Z,99.99
2018-04-22T04:27:43.808Z,99.99
2018-04-22T04:28:43.913Z,99.99
2018-04-22T04:29:43.919Z,99.99
2018-04-22T04:30:43.925Z,99.99
2018-04-22T04:31:43.905Z,99.99
2018-04-22T04:32:43.931Z,99.99
2018-04-22T04:33:43.959Z,99.99
2018-04-22T04:34:43.935Z,99.99
2018-04-22T04:35:43.935Z,99.99
2018-04-22T04:36:43.900Z,99.99
2018-04-22T04:37:43.962Z,99.99
2018-04-22T04:38:43.967Z,99.99
2018-04-22T04:39:43.903Z,99.99
2018-04-22T04:40:43.969Z,99.99
2018-04-22T04:41:43.960Z,99.99
2018-04-22T04:42:43.909Z,99.99
2018-04-22T04:43:43.962Z,99.99
2018-04-22T04:44:43.879Z,99.99
2018-04-22T04:45:43.909Z,99.99
2018-04-22T04:46:43.980Z,99.99
2018-04-22T04:47:43.942Z,99.99
2018-04-22T04:48:43.942Z,99.99
2018-04-22T04:49:43.978Z,99.99
2018-04-22T04:50:43.851Z,99.99
2018-04-22T04:51:43.946Z,99.99
2018-04-22T04:52:43.917Z,99.99
2018-04-22T04:53:43.979Z,99.99
2018-04-22T04:54:43.899Z,99.99
2018-04-22T04:55:43.904Z,99.99
2018-04-22T04:56:43.978Z,99.99
2018-04-22T04:57:43.928Z,99.99
2018-04-22T04:58:43.947Z,99.99
2018-04-22T04:59:43.949Z,99.99
2018-04-22T05:00:43.971Z,99.99
2018-04-22T05:01:43.970Z,99.99
2018-04-22T05:02:43.887Z,99.99
2018-04-22T05:03:43.954Z,99.99
2018-04-22T05:04:43.888Z,99.99
2018-04-22T05:05:43.955Z,99.99
2018-04-22T05:06:43.882Z,99.99
2018-04-22T05:07:43.885Z,99.99
2018-04-22T05:08:43.957Z,99.99
2018-04-22T05:09:43.957Z,99.99
2018-04-22T05:10:43.891Z,99.99
2018-04-22T05:11:43.862Z,99.99
2018-04-22T05:12:43.913Z,99.99
2018-04-22T05:13:43.980Z,99.99
2018-04-22T05:14:43.979Z,99.99
2018-04-22T05:15:43.859Z,99.99
2018-04-22T05:16:43.960Z,99.99
2018-04-22T05:17:43.959Z,99.99
2018-04-22T05:18:44.002Z,99.99
2018-04-22T05:19:43.979Z,99.99
2018-04-22T05:20:43.985Z,99.99
2018-04-22T05:21:43.967Z,99.99
2018-04-22T05:22:43.936Z,99.99
2018-04-22T05:23:43.869Z,99.99
2018-04-22T05:24:43.993Z,99.99
2018-04-22T05:25:43.934Z,99.99
2018-04-22T05:26:43.914Z,99.99
2018-04-22T05:27:43.986Z,99.99
2018-04-22T05:28:43.867Z,99.99
2018-04-22T05:29:43.927Z,99.99
2018-04-22T05:30:43.904Z,99.99
2018-04-22T05:31:43.972Z,99.99
2018-04-22T05:32:43.905Z,99.99
2018-04-22T05:33:43.903Z,99.99
2018-04-22T05:34:43.909Z,99.99
2018-04-22T05:35:43.975Z,99.99
2018-04-22T05:36:43.977Z,99.99
2018-04-22T05:37:43.976Z,99.99
2018-04-22T05:38:43.935Z,99.99
2018-04-22T05:39:43.992Z,99.99
2018-04-22T05:40:43.972Z,99.99
2018-04-22T05:41:43.866Z,99.99
2018-04-22T05:42:43.929Z,99.99
2018-04-22T05:43:43.845Z,99.99
2018-04-22T05:44:43.856Z,99.99
2018-04-22T05:45:43.844Z,99.99
2018-04-22T05:46:43.885Z,99.99
2018-04-22T05:47:43.864Z,99.99
2018-04-22T05:48:43.956Z,99.99
2018-04-22T05:49:43.847Z,99.99
2018-04-22T05:50:43.966Z,99.99
2018-04-22T05:51:43.997Z,99.99
2018-04-22T05:52:43.868Z,99.99
2018-04-22T05:53:43.940Z,99.99
2018-04-22T05:54:43.851Z,99.99
2018-04-22T05:55:43.988Z,99.99
2018-04-22T05:56:43.984Z,99.99
2018-04-22T05:57:43.981Z,99.99
2018-04-22T05:58:43.927Z,99.99
2018-04-22T05:59:43.895Z,99.99
2018-04-22T06:00:43.859Z,99.99
2018-04-22T06:01:43.984Z,99.99
2018-04-22T06:02:43.967Z,99.99
2018-04-22T06:03:43.984Z,99.99
2018-04-22T06:04:44.025Z,99.99
2018-04-22T06:05:43.948Z,99.99
2018-04-22T06:06:43.970Z,99.99
2018-04-22T06:07:43.957Z,99.99
2018-04-22T06:08:44.019Z,99.99
2018-04-22T06:09:43.994Z,99.99
2018-04-22T06:10:44.019Z,99.99
2018-04-22T06:11:43.965Z,99.99
2018-04-22T06:12:44.022Z,99.99
2018-04-22T06:13:44.017Z,99.99
2018-04-22T06:14:43.960Z,99.99
2018-04-22T06:15:44.028Z,99.99
2018-04-22T06:16:44.032Z,99.99
2018-04-22T06:17:44.034Z,99.99
2018-04-22T06:18:43.969Z,99.99
2018-04-22T06:19:43.996Z,99.99
2018-04-22T06:20:43.907Z,99.99
2018-04-22T06:21:44.042Z,99.99
2018-04-22T06:22:44.005Z,99.99
2018-04-22T06:23:44.036Z,99.99
2018-04-22T06:24:43.939Z,99.99
2018-04-22T06:25:44.030Z,99.99
2018-04-22T06:26:43.936Z,99.99
2018-04-22T06:27:44.003Z,99.99
2018-04-22T06:28:44.003Z,99.99
2018-04-22T06:29:44.006Z,99.99
2018-04-22T06:30:44.012Z,99.99
2018-04-22T06:31:44.013Z,99.99
2018-04-22T06:32:44.007Z,99.99
2018-04-22T06:33:44.017Z,99.99
2018-04-22T06:34:43.914Z,98.88
2018-04-22T06:35:43.978Z,97.55
2018-04-22T06:36:43.990Z,96.31
2018-04-22T06:37:43.993Z,94.88
2018-04-22T06:38:44.031Z,92.62
2018-04-22T06:39:44.022Z,89.78
2018-04-22T06:40:43.979Z,89.19
2018-04-22T06:41:44.020Z,89.40
2018-04-22T06:42:44.054Z,88.81
2018-04-22T06:43:44.038Z,87.67
2018-04-22T06:44:44.017Z,88.23
2018-04-22T06:45:43.974Z,87.16
2018-04-22T06:46:44.000Z,86.44
2018-04-22T06:47:44.036Z,86.38
2018-04-22T06:48:44.050Z,85.16
2018-04-22T06:49:44.062Z,85.75
2018-04-22T06:50:43.955Z,85.88
2018-04-22T06:51:43.991Z,84.74
2018-04-22T06:52:43.989Z,82.32
2018-04-22T06:53:44.003Z,80.02
2018-04-22T06:54:43.981Z,79.60
2018-04-22T06:55:44.041Z,80.89
2018-04-22T06:56:43.999Z,81.45
2018-04-22T06:57:43.987Z,81.45
2018-04-22T06:58:43.938Z,81.05
2018-04-22T06:59:44.051Z,79.55
2018-04-22T07:00:43.983Z,81.74
2018-04-22T07:01:44.056Z,82.61
2018-04-22T07:02:43.994Z,81.58
2018-04-22T07:03:43.999Z,82.14
2018-04-22T07:04:43.992Z,82.98
2018-04-22T07:05:43.935Z,83.73
2018-04-22T07:06:43.950Z,82.96
2018-04-22T07:07:43.998Z,83.70
2018-04-22T07:08:43.934Z,85.38
2018-04-22T07:09:43.991Z,84.58
2018-04-22T07:10:44.059Z,84.15
2018-04-22T07:11:44.035Z,83.44
2018-04-22T07:12:44.048Z,84.84
2018-04-22T07:13:44.040Z,84.81
2018-04-22T07:14:43.995Z,83.78
2018-04-22T07:15:44.055Z,83.17
2018-04-22T07:16:44.028Z,82.98
2018-04-22T07:17:43.975Z,81.45
2018-04-22T07:18:43.991Z,80.92
2018-04-22T07:19:43.974Z,81.00
2018-04-22T07:20:44.041Z,80.79
2018-04-22T07:21:44.117Z,80.63
2018-04-22T07:22:44.067Z,79.79
2018-04-22T07:23:44.074Z,78.47
2018-04-22T07:24:43.998Z,78.57
2018-04-22T07:25:43.960Z,79.89
2018-04-22T07:26:44.027Z,79.49
2018-04-22T07:27:44.012Z,79.81
2018-04-22T07:28:43.952Z,79.20
2018-04-22T07:29:44.080Z,78.86
2018-04-22T07:30:44.075Z,77.78
2018-04-22T07:31:43.961Z,75.99
2018-04-22T07:32:44.050Z,75.47
2018-04-22T07:33:44.042Z,76.26
2018-04-22T07:34:43.951Z,76.36
2018-04-22T07:35:44.003Z,72.83
2018-04-22T07:36:43.968Z,72.09
2018-04-22T07:37:44.037Z,72.20
2018-04-22T07:38:44.009Z,71.39
2018-04-22T07:39:44.002Z,71.07
2018-04-22T07:40:44.041Z,69.62
2018-04-22T07:41:44.053Z,71.47
2018-04-22T07:42:43.984Z,70.35
2018-04-22T07:43:44.093Z,68.29
2018-04-22T07:44:44.056Z,69.65
2018-04-22T07:45:44.056Z,66.25
2018-04-22T07:46:44.060Z,67.36
2018-04-22T07:47:44.013Z,65.01
2018-04-22T07:48:44.062Z,65.99
2018-04-22T07:49:43.993Z,68.94
2018-04-22T07:50:44.058Z,68.08
2018-04-22T07:51:44.004Z,67.62
2018-04-22T07:52:44.060Z,67.80
2018-04-22T07:53:44.013Z,68.43
2018-04-22T07:54:44.014Z,67.91
2018-04-22T07:55:44.047Z,67.23
2018-04-22T07:56:43.990Z,66.81
2018-04-22T07:57:43.965Z,66.56
2018-04-22T07:58:43.970Z,68.40
2018-04-22T07:59:44.057Z,68.76
2018-04-22T08:00:43.948Z,68.89
2018-04-22T08:01:44.061Z,69.62
2018-04-22T08:02:44.101Z,69.49
2018-04-22T08:03:44.038Z,70.48
2018-04-22T08:04:44.059Z,70.50
2018-04-22T08:05:44.023Z,71.39
2018-04-22T08:06:44.110Z,72.01
2018-04-22T08:07:44.037Z,72.85
2018-04-22T08:08:44.101Z,72.75
2018-04-22T08:09:44.037Z,73.69
2018-04-22T08:10:44.071Z,73.97
2018-04-22T08:11:44.099Z,73.95
2018-04-22T08:12:44.107Z,74.11
2018-04-22T08:13:44.012Z,75.31
2018-04-22T08:14:44.036Z,74.97
2018-04-22T08:15:44.074Z,74.97
2018-04-22T08:16:44.051Z,74.92
2018-04-22T08:17:44.037Z,74.71
2018-04-22T08:18:44.078Z,74.84
2018-04-22T08:19:43.978Z,75.07
2018-04-22T08:20:44.047Z,75.65
2018-04-22T08:21:44.035Z,75.44
2018-04-22T08:22:44.005Z,75.39
2018-04-22T08:23:43.980Z,75.68
2018-04-22T08:24:44.111Z,75.89
2018-04-22T08:25:44.078Z,75.65
2018-04-22T08:26:44.085Z,75.96
2018-04-22T08:27:44.056Z,76.39
2018-04-22T08:28:44.056Z,76.70
2018-04-22T08:29:44.044Z,76.57
2018-04-22T08:30:44.084Z,76.54
2018-04-22T08:31:44.083Z,76.86
2018-04-22T08:32:44.020Z,76.94
2018-04-22T08:33:44.025Z,77.12
2018-04-22T08:34:44.087Z,77.75
2018-04-22T08:35:44.030Z,77.17
2018-04-22T08:36:44.088Z,77.39
2018-04-22T08:37:44.027Z,76.91
2018-04-22T08:38:44.093Z,75.89
2018-04-22T08:39:44.020Z,74.42
2018-04-22T08:40:44.095Z,73.55
2018-04-22T08:41:44.050Z,73.06
2018-04-22T08:42:44.035Z,72.38
2018-04-22T08:43:44.073Z,71.81
2018-04-22T08:44:43.974Z,71.65
2018-04-22T08:45:44.085Z,71.81
2018-04-22T08:46:43.961Z,71.57
2018-04-22T08:47:44.074Z,70.82
2018-04-22T08:48:44.050Z,70.66
2018-04-22T08:49:44.077Z,71.15
2018-04-22T08:50:44.087Z,68.87
2018-04-22T08:51:44.118Z,68.40
2018-04-22T08:52:44.122Z,65.68
2018-04-22T08:53:44.098Z,67.31
2018-04-22T08:54:44.074Z,68.47
2018-04-22T08:55:44.041Z,68.89
2018-04-22T08:56:44.175Z,69.02
2018-04-22T08:57:44.135Z,69.02
2018-04-22T08:58:44.072Z,68.63
2018-04-22T08:59:44.082Z,68.22
2018-04-22T09:00:44.100Z,66.79
2018-04-22T09:01:44.106Z,66.74
2018-04-22T09:02:44.163Z,66.30
2018-04-22T09:03:44.104Z,67.39
2018-04-22T09:04:44.024Z,65.26
2018-04-22T09:05:44.106Z,64.49
2018-04-22T09:06:44.108Z,65.24
2018-04-22T09:07:44.105Z,65.24
2018-04-22T09:08:44.086Z,63.54
2018-04-22T09:09:44.082Z,63.59
2018-04-22T09:10:44.066Z,65.18
2018-04-22T09:11:44.013Z,65.83
2018-04-22T09:12:44.068Z,65.16
2018-04-22T09:13:44.113Z,64.44
2018-04-22T09:14:44.103Z,63.56
2018-04-22T09:15:44.105Z,63.59
2018-04-22T09:16:43.981Z,63.18
2018-04-22T09:17:44.103Z,62.22
2018-04-22T09:18:44.043Z,62.30
2018-04-22T09:19:44.103Z,61.82
2018-04-22T09:20:44.042Z,61.20
2018-04-22T09:21:44.140Z,61.38
2018-04-22T09:22:44.139Z,61.66
2018-04-22T09:23:44.143Z,62.66
2018-04-22T09:24:44.023Z,64.10
2018-04-22T09:25:44.146Z,64.67
2018-04-22T09:26:44.161Z,64.82
2018-04-22T09:27:44.097Z,64.44
2018-04-22T09:28:44.120Z,64.34
2018-04-22T09:29:44.122Z,64.26
2018-04-22T09:30:44.062Z,64.38
2018-04-22T09:31:44.097Z,64.54
2018-04-22T09:32:44.101Z,64.88
2018-04-22T09:33:44.169Z,64.00
2018-04-22T09:34:44.098Z,63.87
2018-04-22T09:35:44.097Z,64.38
2018-04-22T09:36:44.160Z,66.12
2018-04-22T09:37:44.097Z,63.74
2018-04-22T09:38:44.162Z,62.90
2018-04-22T09:39:44.097Z,61.48
2018-04-22T09:40:44.168Z,61.43
2018-04-22T09:41:44.153Z,63.05
2018-04-22T09:42:44.106Z,62.30
2018-04-22T09:43:44.163Z,60.73
2018-04-22T09:44:44.169Z,60.78
2018-04-22T09:45:44.033Z,60.97
2018-04-22T09:46:44.102Z,61.17
2018-04-22T09:47:44.203Z,60.43
2018-04-22T09:48:44.089Z,61.02
2018-04-22T09:49:44.142Z,60.84
2018-04-22T09:50:44.131Z,62.14
2018-04-22T09:51:44.172Z,62.18
2018-04-22T09:52:44.130Z,61.61
2018-04-22T09:53:44.065Z,60.12
2018-04-22T09:54:44.137Z,59.15
2018-04-22T09:55:44.204Z,59.65
2018-04-22T09:56:44.070Z,59.56
2018-04-22T09:57:44.141Z,59.94
2018-04-22T09:58:44.145Z,60.05
2018-04-22T09:59:44.139Z,58.43
2018-04-22T10:00:44.075Z,59.92
2018-04-22T10:01:44.072Z,59.45
2018-04-22T10:02:44.173Z,57.56
2018-04-22T10:03:44.144Z,59.71
2018-04-22T10:04:44.125Z,60.20
2018-04-22T10:05:44.140Z,58.71
2018-04-22T10:06:44.105Z,57.99
2018-04-22T10:07:44.048Z,57.71
2018-04-22T10:08:44.129Z,57.84
2018-04-22T10:09:44.098Z,57.48
2018-04-22T10:10:44.064Z,57.56
2018-04-22T10:11:44.150Z,58.10
2018-04-22T10:12:44.171Z,58.59
2018-04-22T10:13:44.153Z,57.64
2018-04-22T10:14:44.089Z,57.30
2018-04-22T10:15:44.155Z,60.20
2018-04-22T10:16:44.081Z,58.10
2018-04-22T10:17:44.155Z,61.50
2018-04-22T10:18:44.081Z,60.86
2018-04-22T10:19:44.084Z,57.56
2018-04-22T10:20:44.155Z,57.21
2018-04-22T10:21:44.122Z,55.14
2018-04-22T10:22:44.161Z,59.32
2018-04-22T10:23:44.213Z,55.22
2018-04-22T10:24:44.074Z,56.18
2018-04-22T10:25:44.058Z,58.43
2018-04-22T10:26:44.075Z,55.96
2018-04-22T10:27:44.132Z,54.91
2018-04-22T10:28:44.199Z,55.35
2018-04-22T10:29:44.157Z,55.19
2018-04-22T10:30:44.198Z,56.31
2018-04-22T10:31:44.127Z,56.31
2018-04-22T10:32:44.095Z,53.72
2018-04-22T10:33:44.099Z,55.32
2018-04-22T10:34:44.170Z,56.24
2018-04-22T10:35:44.094Z,54.99
2018-04-22T10:36:44.095Z,54.86
2018-04-22T10:37:44.211Z,56.18
2018-04-22T10:38:44.100Z,56.87
2018-04-22T10:39:44.165Z,55.65
2018-04-22T10:40:44.165Z,55.85
2018-04-22T10:41:44.167Z,55.72
2018-04-22T10:42:44.051Z,55.42
2018-04-22T10:43:44.098Z,56.59
2018-04-22T10:44:44.098Z,54.71
2018-04-22T10:45:44.097Z,55.42
2018-04-22T10:46:44.142Z,55.50
2018-04-22T10:47:44.176Z,54.30
2018-04-22T10:48:44.102Z,54.17
2018-04-22T10:49:44.181Z,55.02
2018-04-22T10:50:44.102Z,55.19
2018-04-22T10:51:44.103Z,54.86
2018-04-22T10:52:44.180Z,54.50
2018-04-22T10:53:44.105Z,54.56
2018-04-22T10:54:44.145Z,56.11
2018-04-22T10:55:44.174Z,55.04
2018-04-22T10:56:44.106Z,54.66
2018-04-22T10:57:44.106Z,52.96
2018-04-22T10:58:44.145Z,53.01
2018-04-22T10:59:44.106Z,53.31
2018-04-22T11:00:44.182Z,54.37
2018-04-22T11:01:44.279Z,55.32
2018-04-22T11:02:44.157Z,54.12
2018-04-22T11:03:44.211Z,55.70
2018-04-22T11:04:44.149Z,55.98
2018-04-22T11:05:44.179Z,52.85
2018-04-22T11:06:44.221Z,52.73
2018-04-22T11:07:44.220Z,52.83
2018-04-22T11:08:44.157Z,52.35
2018-04-22T11:09:44.206Z,51.33
2018-04-22T11:10:44.223Z,51.59
2018-04-22T11:11:44.249Z,51.97
2018-04-22T11:12:44.191Z,53.16
2018-04-22T11:13:44.198Z,52.53
2018-04-22T11:14:44.118Z,55.35
2018-04-22T11:15:44.194Z,54.02
2018-04-22T11:16:44.119Z,52.20
2018-04-22T11:17:44.118Z,56.69
2018-04-22T11:18:44.120Z,52.60
2018-04-22T11:19:44.139Z,54.58
2018-04-22T11:20:44.193Z,51.41
2018-04-22T11:21:44.122Z,52.17
2018-04-22T11:22:44.195Z,51.74
2018-04-22T11:23:44.200Z,52.83
2018-04-22T11:24:44.125Z,51.87
2018-04-22T11:25:44.199Z,50.38
2018-04-22T11:26:44.195Z,51.46
2018-04-22T11:27:44.126Z,51.24
2018-04-22T11:28:44.200Z,52.20
2018-04-22T11:29:44.199Z,50.43
2018-04-22T11:30:44.204Z,51.59
2018-04-22T11:31:44.130Z,49.64
2018-04-22T11:32:44.231Z,50.05
2018-04-22T11:33:44.180Z,50.96
2018-04-22T11:34:44.281Z,51.26
2018-04-22T11:35:44.240Z,49.85
2018-04-22T11:36:44.138Z,50.58
2018-04-22T11:37:44.168Z,49.85
2018-04-22T11:38:44.141Z,50.20
2018-04-22T11:39:44.180Z,48.81
2018-04-22T11:40:44.230Z,49.52
2018-04-22T11:41:44.245Z,50.18
2018-04-22T11:42:44.078Z,49.87
2018-04-22T11:43:44.128Z,47.98
2018-04-22T11:44:44.165Z,49.37
2018-04-22T11:45:44.113Z,47.53
2018-04-22T11:46:44.150Z,48.28
2018-04-22T11:47:44.105Z,47.71
2018-04-22T11:48:44.079Z,46.75
2018-04-22T11:49:44.128Z,46.65
2018-04-22T11:50:44.098Z,48.23
2018-04-22T11:51:44.204Z,47.06
2018-04-22T11:52:44.242Z,46.27
2018-04-22T11:53:44.213Z,46.27
2018-04-22T11:54:44.249Z,45.32
2018-04-22T11:55:44.168Z,46.43
2018-04-22T11:56:44.119Z,46.00
2018-04-22T11:57:44.249Z,47.08
2018-04-22T11:58:44.213Z,46.83
2018-04-22T11:59:44.190Z,46.25
2018-04-22T12:00:44.222Z,48.99
2018-04-22T12:01:44.177Z,46.90
2018-04-22T12:02:44.222Z,46.78
2018-04-22T12:03:44.118Z,44.68
2018-04-22T12:04:44.237Z,46.75
2018-04-22T12:05:44.180Z,45.55
2018-04-22T12:06:44.250Z,46.10
2018-04-22T12:07:44.219Z,44.72
2018-04-22T12:08:44.237Z,44.05
2018-04-22T12:09:44.246Z,45.25
2018-04-22T12:10:44.238Z,44.93
2018-04-22T12:11:44.182Z,45.32
2018-04-22T12:12:44.141Z,46.35
2018-04-22T12:13:44.248Z,44.12
2018-04-22T12:14:44.206Z,44.50
2018-04-22T12:15:44.244Z,44.85
2018-04-22T12:16:44.225Z,44.15
2018-04-22T12:17:44.189Z,45.60
2018-04-22T12:18:44.240Z,46.00
2018-04-22T12:19:44.190Z,45.12
2018-04-22T12:20:44.248Z,44.32
2018-04-22T12:21:44.139Z,45.65
2018-04-22T12:22:44.203Z,42.35
2018-04-22T12:23:44.234Z,41.75
2018-04-22T12:24:44.227Z,43.33
2018-04-22T12:25:44.265Z,43.50
2018-04-22T12:26:44.134Z,40.48
2018-04-22T12:27:44.209Z,42.85
2018-04-22T12:28:44.136Z,42.55
2018-04-22T12:29:44.193Z,44.25
2018-04-22T12:30:44.192Z,42.42
2018-04-22T12:31:44.259Z,41.61
2018-04-22T12:32:44.168Z,43.45
2018-04-22T12:33:44.223Z,44.02
2018-04-22T12:34:44.163Z,45.20
2018-04-22T12:35:44.109Z,44.75
2018-04-22T12:36:44.189Z,45.27
2018-04-22T12:37:44.217Z,45.15
2018-04-22T12:38:44.175Z,45.15
2018-04-22T12:39:44.171Z,46.07
2018-04-22T12:40:44.213Z,43.95
2018-04-22T12:41:44.217Z,43.65
2018-04-22T12:42:44.109Z,43.20
2018-04-22T12:43:44.135Z,43.80
2018-04-22T12:44:44.132Z,45.80
2018-04-22T12:45:44.116Z,46.00
2018-04-22T12:46:44.159Z,44.22
2018-04-22T12:47:44.172Z,45.00
2018-04-22T12:48:44.180Z,44.25
2018-04-22T12:49:44.115Z,43.20
2018-04-22T12:50:44.171Z,43.40
2018-04-22T12:51:44.223Z,44.50
2018-04-22T12:52:44.156Z,43.38